Time;durP1;ratioP1;P1;durP2;ratioP2;P2;SDS_P1;SDS_P2;PMS_P1;PMS_P2;Temp;Humidity;BMP_temperature;BMP_pressure;BME280_temperature;BME280_humidity;BME280_pressure;Samples;Min_cycle;Max_cycle;Signal;HPM_P1;HPM_P2
2023/05/08 00:03:03;;;;;;;16.50;11.40;;;;;;;4.32;73.48;101439.21;128772;1273;115141;-70
2023/05/08 00:11:01;;;;;;;16.90;11.50;;;;;;;4.19;74.26;101443.18;122257;1297;114986;-70
2023/05/08 00:15:03;;;;;;;18.20;10.90;;;;;;;4.15;74.43;101448.31;125077;1310;114915;-71
2023/05/08 00:18:39;;;;;;;15.20;11.30;;;;;;;4.09;74.34;101450.11;124100;1327;114908;-69
2023/05/08 00:26:58;;;;;;;;;;;;;;;;;;;;;
2023/05/08 00:31:03;;;;;;;17.00;11.30;;;;;;;3.93;74.69;101441.86;128246;1296;128586;-70
2023/05/08 00:34:44;;;;;;;16.10;11.10;;;;;;;3.87;75.09;101445.42;128257;1275;115364;-70
2023/05/08 00:38:42;;;;;;;19.80;11.60;;;;;;;3.83;75.17;101442.61;128569;1279;114796;-70
2023/05/08 00:42:46;;;;;;;17.60;11.80;;;;;;;3.77;75.16;101444.73;123867;1294;114980;-70
2023/05/08 00:46:46;;;;;;;14.90;11.10;;;;;;;3.72;75.30;101443.35;126278;1314;114904;-69
2023/05/08 00:50:29;;;;;;;20.90;11.50;;;;;;;3.67;75.46;101445.30;125402;1302;114945;-71
2023/05/08 01:02:30;;;;;;;12.60;10.20;;;;;;;3.57;76.09;101443.02;128682;1273;127604;31
2023/05/08 01:05:32;;;;;;;15.50;12.00;;;;;;;3.54;76.17;101445.16;128688;1280;115204;-64
2023/05/08 01:08:34;;;;;;;14.50;10.70;;;;;;;3.53;76.24;101450.81;128851;1296;114795;-66
2023/05/08 01:11:43;;;;;;;16.60;10.90;;;;;;;3.50;76.34;101452.40;128665;1274;261137;-64
2023/05/08 01:14:48;;;;;;;17.60;11.40;;;;;;;3.48;76.39;101452.58;129033;1271;115389;-65
2023/05/08 01:18:03;;;;;;;15.90;11.30;;;;;;;3.47;76.66;101455.59;128798;1271;115260;-66
2023/05/08 01:21:34;;;;;;;15.00;11.30;;;;;;;3.44;76.45;101455.59;128883;1285;129714;-65
2023/05/08 01:24:55;;;;;;;15.70;11.00;;;;;;;3.40;76.52;101455.42;128654;1294;115184;-63
2023/05/08 01:28:11;;;;;;;17.30;11.10;;;;;;;3.37;76.60;101463.02;128820;1274;115213;-64
2023/05/08 01:31:22;;;;;;;;;;;;;;;3.34;76.67;101460.02;128701;1277;114838;-63
2023/05/08 01:34:26;;;;;;;18.20;11.90;;;;;;;3.30;77.10;101462.49;128829;1272;114749;-65
2023/05/08 01:37:44;;;;;;;14.10;10.30;;;;;;;3.27;77.01;101462.85;128761;1292;127950;-64
2023/05/08 01:41:04;;;;;;;16.20;11.70;;;;;;;3.24;77.14;101458.78;128682;1276;115190;-64
2023/05/08 01:44:16;;;;;;;14.80;11.00;;;;;;;3.21;76.89;101460.91;128535;1277;115015;-64
2023/05/08 01:47:19;;;;;;;14.80;10.60;;;;;;;3.17;77.14;101465.49;128512;1277;114963;-64
2023/05/08 01:50:27;;;;;;;14.10;11.00;;;;;;;3.14;77.03;101466.20;128073;1294;114993;-65
2023/05/08 01:53:36;;;;;;;18.10;11.00;;;;;;;3.10;77.27;101464.80;128534;1293;129021;-62
2023/05/08 01:56:40;;;;;;;15.30;10.80;;;;;;;3.07;77.40;101467.61;128530;1293;115194;-64
2023/05/08 01:59:43;;;;;;;12.50;9.20;;;;;;;3.03;77.41;101469.04;128479;1272;115167;-64
2023/05/08 02:02:46;;;;;;;13.70;9.70;;;;;;;3.02;77.75;101469.20;128560;1271;115093;-64
2023/05/08 02:05:50;;;;;;;14.10;9.90;;;;;;;3.00;77.77;101469.36;128504;1294;114744;-64
2023/05/08 02:08:53;;;;;;;14.40;10.20;;;;;;;2.98;77.81;101467.08;128506;1272;128829;-64
2023/05/08 02:11:57;;;;;;;12.70;9.80;;;;;;;2.97;77.86;101472.39;128630;1277;114730;-64
2023/05/08 02:15:00;;;;;;;15.10;9.80;;;;;;;2.95;78.02;101471.67;128484;1276;115492;-64
2023/05/08 02:18:07;;;;;;;16.00;10.00;;;;;;;2.94;78.06;101473.95;128482;1284;114755;-63
2023/05/08 02:21:11;;;;;;;16.40;10.50;;;;;;;2.93;78.00;101475.01;128189;1293;114871;-64
2023/05/08 02:24:13;;;;;;;15.50;10.10;;;;;;;2.90;78.02;101480.66;128582;1293;114759;-64
2023/05/08 02:27:16;;;;;;;15.50;10.00;;;;;;;2.89;78.32;101486.83;128750;1293;114810;-64
2023/05/08 02:30:21;;;;;;;15.10;10.30;;;;;;;2.88;78.23;101486.84;128743;1287;114883;-64
2023/05/08 02:33:23;;;;;;;12.10;7.20;;;;;;;2.87;78.56;101487.38;128667;1275;114932;-63
2023/05/08 02:36:27;;;;;;;12.40;9.40;;;;;;;2.86;78.46;101489.13;128854;1291;114822;-63
2023/05/08 02:39:30;;;;;;;16.00;10.40;;;;;;;2.86;78.32;101489.13;128727;1291;114857;-64
2023/05/08 02:42:32;;;;;;;13.70;9.20;;;;;;;2.85;78.56;101493.36;128729;1291;114733;-63
2023/05/08 02:45:46;;;;;;;12.50;9.30;;;;;;;2.85;78.42;101490.17;128718;1291;114821;-63
2023/05/08 02:49:28;;;;;;;12.50;9.00;;;;;;;2.83;78.76;101497.40;128670;1274;114931;-64
2023/05/08 02:52:51;;;;;;;14.00;9.70;;;;;;;2.82;78.75;101505.17;128771;1290;114717;-62
2023/05/08 02:56:05;;;;;;;14.10;9.40;;;;;;;2.82;78.68;101506.59;128688;1271;128691;-63
2023/05/08 02:59:44;;;;;;;14.50;9.90;;;;;;;2.80;78.81;101508.88;128899;1287;115175;-63
2023/05/08 03:02:49;;;;;;;12.70;9.20;;;;;;;2.78;78.70;101505.00;128838;1271;114782;-63
2023/05/08 03:05:55;;;;;;;16.90;10.20;;;;;;;2.77;78.63;101505.69;128767;1273;115489;-63
2023/05/08 03:08:56;;;;;;;;;;;;;;;2.74;78.61;101503.57;128931;1288;115526;-63
2023/05/08 03:12:08;;;;;;;12.70;9.30;;;;;;;2.71;78.83;101506.73;128864;1273;114669;-63
2023/05/08 03:15:23;;;;;;;15.90;10.10;;;;;;;2.70;78.78;101509.73;128977;1288;114811;-63
2023/05/08 03:18:31;;;;;;;14.30;9.80;;;;;;;2.68;78.91;101512.02;128996;1271;114812;-63
2023/05/08 03:21:36;;;;;;;18.90;10.20;;;;;;;2.66;78.96;101512.19;129049;1288;114734;-65
2023/05/08 03:24:39;;;;;;;13.80;10.30;;;;;;;2.65;78.79;101517.85;129029;1271;115167;-63
2023/05/08 03:27:41;;;;;;;12.70;10.00;;;;;;;2.64;78.81;101519.26;129059;1288;114706;-63
2023/05/08 03:30:44;;;;;;;14.80;10.10;;;;;;;2.63;79.04;101521.36;129032;1288;114875;-67
2023/05/08 03:33:47;;;;;;;14.70;10.40;;;;;;;2.63;78.99;101519.59;129087;1269;115332;-63
2023/05/08 03:36:51;;;;;;;15.50;9.60;;;;;;;2.62;79.10;101518.00;128809;1288;114759;-63
2023/05/08 03:39:54;;;;;;;16.10;9.70;;;;;;;2.64;79.25;101518.55;128992;1266;114705;-65
2023/05/08 03:42:57;;;;;;;15.60;10.40;;;;;;;2.64;79.28;101518.55;129014;1272;114712;-64
2023/05/08 03:45:59;;;;;;;14.20;9.70;;;;;;;2.65;79.34;101520.30;129081;1288;114792;-63
2023/05/08 03:49:03;;;;;;;15.80;9.60;;;;;;;2.67;79.42;101520.48;129200;1266;114743;-63
2023/05/08 03:52:06;;;;;;;14.10;8.80;;;;;;;2.69;79.63;101518.02;128938;1273;114821;-63
2023/05/08 03:55:08;;;;;;;12.80;9.40;;;;;;;2.72;79.70;101522.27;129180;1271;114816;-64
2023/05/08 03:58:16;;;;;;;16.00;10.40;;;;;;;2.77;79.65;101526.34;129146;1289;114753;-63
2023/05/08 04:01:26;;;;;;;12.60;9.40;;;;;;;2.80;79.69;101528.10;128907;1274;128550;-62
2023/05/08 04:04:39;;;;;;;14.50;9.40;;;;;;;2.84;79.82;101529.52;128698;1274;116390;-62
2023/05/08 04:08:20;;;;;;;13.80;9.40;;;;;;;2.89;79.72;101534.13;128773;1271;114728;-63
2023/05/08 04:11:31;;;;;;;13.40;10.00;;;;;;;2.95;79.84;101539.26;128732;1290;114840;-64
2023/05/08 04:14:52;;;;;;;13.90;8.80;;;;;;;3.02;79.89;101540.14;128442;1289;114934;-63
2023/05/08 04:18:13;;;;;;;17.50;9.90;;;;;;;3.09;79.92;101538.75;128845;1279;128270;-63
2023/05/08 04:21:22;;;;;;;15.40;10.00;;;;;;;3.16;79.94;101539.11;129029;1271;115177;-64
2023/05/08 04:24:27;;;;;;;16.10;10.20;;;;;;;3.25;79.98;101540.71;128949;1271;114832;-64
2023/05/08 04:27:29;;;;;;;15.90;10.50;;;;;;;3.33;80.12;101538.95;128748;1274;114768;-63
2023/05/08 04:30:32;;;;;;;12.40;9.20;;;;;;;3.42;80.36;101542.13;128711;1290;115433;-64
2023/05/08 04:33:34;;;;;;;14.70;9.30;;;;;;;3.53;80.20;101550.25;128821;1290;114810;-63
2023/05/08 04:36:37;;;;;;;18.70;9.30;;;;;;;3.63;80.42;101551.66;128849;1271;114908;-64
2023/05/08 04:39:39;;;;;;;14.00;9.70;;;;;;;3.78;80.40;101554.11;128894;1267;115155;-63
2023/05/08 04:42:42;;;;;;;11.80;8.60;;;;;;;3.94;80.15;101554.63;128636;1273;114830;-63
2023/05/08 04:45:45;;;;;;;9.20;7.60;;;;;;;4.16;80.43;101557.59;129073;1289;114707;-65
2023/05/08 04:48:47;;;;;;;10.90;8.20;;;;;;;4.85;81.03;101560.83;129025;1289;115461;-62
2023/05/08 04:51:52;;;;;;;15.10;7.80;;;;;;;6.03;80.69;101560.45;129224;1289;114751;-62
2023/05/08 04:54:54;;;;;;;;;;;;;;;7.28;79.84;101563.83;128817;1271;116368;-63
2023/05/08 04:57:56;;;;;;;10.50;7.50;;;;;;;8.37;77.00;101565.15;128828;1272;115188;-63
2023/05/08 05:01:03;;;;;;;9.10;6.40;;;;;;;9.22;75.89;101566.38;129117;1289;114727;-64
2023/05/08 05:04:06;;;;;;;9.80;6.50;;;;;;;10.05;74.12;101562.87;128751;1288;114884;-62
2023/05/08 05:07:08;;;;;;;8.10;6.30;;;;;;;10.68;72.57;101573.28;129108;1288;114751;-62
2023/05/08 05:10:10;;;;;;;9.10;6.40;;;;;;;11.29;71.74;101573.90;129187;1273;114718;-62
2023/05/08 05:13:13;;;;;;;8.40;6.20;;;;;;;11.99;70.79;101570.02;129043;1272;114820;-62
2023/05/08 05:16:16;;;;;;;7.30;5.90;;;;;;;12.65;69.37;101567.44;129040;1270;114727;-62
2023/05/08 05:19:18;;;;;;;7.90;5.60;;;;;;;13.27;69.22;101564.52;128872;1271;115413;-62
2023/05/08 05:22:20;;;;;;;8.90;5.50;;;;;;;13.85;68.02;101563.56;129018;1270;114777;-62
2023/05/08 05:25:22;;;;;;;6.80;6.00;;;;;;;14.38;67.70;101564.13;129048;1270;114804;-63
2023/05/08 05:28:25;;;;;;;7.00;5.70;;;;;;;14.60;64.73;101564.76;128961;1289;114700;-63
2023/05/08 05:31:28;;;;;;;9.50;5.90;;;;;;;14.60;63.90;101565.13;128917;1289;114711;-63
2023/05/08 05:34:30;;;;;;;9.50;6.10;;;;;;;14.55;62.64;101567.13;129049;1288;114818;-64
2023/05/08 05:37:32;;;;;;;7.70;6.40;;;;;;;14.57;62.67;101562.56;128970;1289;114727;-63
2023/05/08 05:40:34;;;;;;;10.80;5.80;;;;;;;14.74;62.30;101564.52;128994;1289;114751;-63
2023/05/08 05:43:37;;;;;;;8.30;6.00;;;;;;;14.79;61.30;101566.60;128987;1271;115162;-63
2023/05/08 05:46:39;;;;;;;9.00;6.10;;;;;;;14.91;61.08;101568.95;128992;1271;115518;-63
2023/05/08 05:49:45;;;;;;;6.50;5.80;;;;;;;14.91;61.36;101569.46;129037;1289;114898;-63
2023/05/08 05:52:48;;;;;;;8.20;6.00;;;;;;;14.90;59.38;101572.23;128962;1272;129255;-63
2023/05/08 05:55:50;;;;;;;10.10;6.60;;;;;;;14.80;60.10;101571.77;129119;1271;114741;-63
2023/05/08 05:58:52;;;;;;;7.70;6.70;;;;;;;15.11;60.25;101573.19;128977;1280;115179;-62
2023/05/08 06:01:54;;;;;;;7.60;5.80;;;;;;;15.46;60.15;101572.38;129000;1289;114737;-63
2023/05/08 06:04:58;;;;;;;7.70;5.80;;;;;;;15.83;59.67;101569.49;129015;1273;115104;-62
2023/05/08 06:08:00;;;;;;;8.30;6.20;;;;;;;16.06;57.58;101576.98;129094;1279;114725;-62
2023/05/08 06:11:03;;;;;;;6.40;5.70;;;;;;;16.04;56.21;101573.86;128982;1272;114874;-63
2023/05/08 06:14:05;;;;;;;8.30;6.30;;;;;;;16.01;55.99;101578.08;129000;1289;114834;-62
2023/05/08 06:17:07;;;;;;;7.00;5.40;;;;;;;15.94;55.25;101579.20;128991;1287;115113;-63
2023/05/08 06:20:10;;;;;;;7.20;5.70;;;;;;;15.99;55.76;101582.92;128907;1274;115429;-64
2023/05/08 06:23:13;;;;;;;9.20;6.00;;;;;;;16.15;55.34;101581.36;129054;1266;114870;-63
2023/05/08 06:26:15;;;;;;;8.70;6.20;;;;;;;16.29;55.49;101580.83;129079;1288;114740;-63
2023/05/08 06:29:18;;;;;;;8.70;5.90;;;;;;;16.64;55.78;101580.92;129031;1288;114728;-63
2023/05/08 06:32:21;;;;;;;7.20;5.90;;;;;;;16.88;54.50;101584.66;129197;1266;114827;-62
2023/05/08 06:35:23;;;;;;;7.30;6.00;;;;;;;16.90;53.21;101583.67;129112;1272;115311;-62
2023/05/08 06:38:26;;;;;;;9.10;6.00;;;;;;;16.88;53.12;101584.67;129138;1272;114721;-63
2023/05/08 06:41:29;;;;;;;7.10;5.80;;;;;;;16.99;53.31;101589.48;129171;1269;114718;-63
2023/05/08 06:44:32;;;;;;;6.60;5.50;;;;;;;16.96;51.76;101590.36;129114;1288;115317;-63
2023/05/08 06:47:34;;;;;;;6.20;5.40;;;;;;;16.78;51.82;101592.96;129120;1288;114820;-63
2023/05/08 06:50:41;;;;;;;7.50;6.00;;;;;;;16.51;49.76;101596.07;128993;1288;114738;-64
2023/05/08 06:53:44;;;;;;;10.30;5.40;;;;;;;16.20;51.08;101600.90;128742;1288;115229;-64
2023/05/08 06:56:46;;;;;;;6.90;5.70;;;;;;;16.15;50.77;101603.73;129103;1270;114772;-63
2023/05/08 06:59:48;;;;;;;6.90;5.60;;;;;;;16.17;51.05;101605.61;129147;1269;114765;-63
2023/05/08 07:02:51;;;;;;;7.10;5.60;;;;;;;16.49;51.75;101604.81;129176;1288;114752;-64
2023/05/08 07:05:53;;;;;;;8.20;5.70;;;;;;;16.66;50.69;101601.95;129478;1279;115144;-65
2023/05/08 07:08:56;;;;;;;8.30;6.20;;;;;;;16.52;48.93;101608.09;130646;1270;114776;-63
2023/05/08 07:11:59;;;;;;;8.90;5.60;;;;;;;16.13;49.28;101605.80;129833;1279;114798;-63
2023/05/08 07:15:02;;;;;;;6.00;5.30;;;;;;;16.15;49.41;101609.52;129348;1269;114807;-64
2023/05/08 07:18:05;;;;;;;12.50;5.80;;;;;;;16.41;49.58;101609.20;129391;1274;114738;-62
2023/05/08 07:21:08;;;;;;;6.40;4.90;;;;;;;16.51;48.77;101611.91;129728;1265;114791;-63
2023/05/08 07:24:10;;;;;;;5.80;4.90;;;;;;;16.61;48.32;101612.14;129678;1274;114731;-62
2023/05/08 07:27:13;;;;;;;5.50;4.80;;;;;;;16.74;47.74;101608.88;129364;1277;114738;-63
2023/05/08 07:30:16;;;;;;;5.80;4.90;;;;;;;16.86;47.76;101604.44;129329;1265;114732;-64
2023/05/08 07:33:18;;;;;;;7.00;4.70;;;;;;;17.06;47.31;101606.26;129323;1282;114810;-62
2023/05/08 07:36:21;;;;;;;4.50;4.10;;;;;;;17.14;45.82;101609.09;129408;1276;115399;-63
2023/05/08 07:39:24;;;;;;;7.70;4.70;;;;;;;16.92;45.16;101613.86;129365;1285;115180;-63
2023/05/08 07:42:26;;;;;;;8.20;4.40;;;;;;;16.71;45.62;101606.00;129367;1285;114814;-71
2023/05/08 07:45:29;;;;;;;5.40;4.30;;;;;;;16.90;45.45;101604.41;129218;1285;114777;-73
2023/05/08 07:48:31;;;;;;;7.60;4.10;;;;;;;16.80;44.63;101606.55;129397;1285;114741;-72
2023/05/08 07:51:33;;;;;;;8.60;4.20;;;;;;;16.73;43.80;101605.52;129280;1285;115172;-73
2023/05/08 07:54:36;;;;;;;9.10;4.20;;;;;;;16.51;43.33;101609.55;129385;1285;115130;-74
2023/05/08 07:57:39;;;;;;;5.60;4.30;;;;;;;16.27;43.32;101607.98;129213;1266;115334;-72
2023/05/08 08:00:43;;;;;;;4.50;3.70;;;;;;;16.15;43.28;101608.57;129234;1285;114739;-72
2023/05/08 08:03:46;;;;;;;5.50;4.20;;;;;;;16.15;43.73;101607.17;129239;1279;114739;-72
2023/05/08 08:06:48;;;;;;;5.90;4.20;;;;;;;16.20;43.72;101614.80;129262;1266;114738;-73
2023/05/08 08:09:50;;;;;;;6.20;4.50;;;;;;;16.16;43.84;101608.35;129380;1265;115168;-71
2023/05/08 08:12:53;;;;;;;6.40;4.60;;;;;;;16.26;44.42;101605.83;129209;1268;114775;-75
2023/05/08 08:15:56;;;;;;;7.60;4.40;;;;;;;16.34;43.73;101601.45;129271;1265;114833;-71
2023/05/08 08:18:58;;;;;;;5.20;4.40;;;;;;;16.48;43.83;101601.46;129347;1284;114739;-72
2023/05/08 08:22:01;;;;;;;7.40;4.50;;;;;;;16.47;43.06;101606.36;129222;1284;114801;-72
2023/05/08 08:25:03;;;;;;;5.60;4.50;;;;;;;16.40;42.74;101597.90;129295;1284;115433;-70
2023/05/08 08:28:06;;;;;;;8.00;4.10;;;;;;;16.42;43.30;101598.35;129207;1284;115340;-73
2023/05/08 08:31:08;;;;;;;6.30;3.90;;;;;;;16.56;43.05;101594.52;129252;1265;114746;-73
2023/05/08 08:34:11;;;;;;;6.30;3.80;;;;;;;16.69;42.74;101591.81;129275;1265;114798;-72
2023/05/08 08:37:13;;;;;;;4.90;3.40;;;;;;;16.71;43.05;101589.02;129286;1269;114783;-73
2023/05/08 08:40:16;;;;;;;6.50;4.10;;;;;;;16.61;42.66;101583.42;129294;1281;114930;-73
2023/05/08 08:43:18;;;;;;;5.90;3.60;;;;;;;16.64;42.50;101588.13;129214;1285;128909;-73
2023/05/08 08:46:25;;;;;;;7.30;4.40;;;;;;;16.63;41.76;101589.29;129207;1286;114871;-72
2023/05/08 08:49:30;;;;;;;5.90;3.40;;;;;;;16.54;40.71;101586.37;129063;1269;114811;-73
2023/05/08 08:53:00;;;;;;;6.90;4.50;;;;;;;16.33;40.72;101581.48;129158;1269;114845;-76
2023/05/08 08:56:02;;;;;;;5.50;3.90;;;;;;;16.06;41.14;101592.31;129086;1284;115188;-73
2023/05/08 08:59:07;;;;;;;7.10;4.50;;;;;;;15.72;41.17;101586.39;129257;1282;115095;-72
2023/05/08 09:02:11;;;;;;;8.70;4.20;;;;;;;15.61;42.33;101596.17;129162;1269;114848;-71
2023/05/08 09:05:14;;;;;;;6.10;4.20;;;;;;;15.52;41.25;101600.02;129366;1275;114823;-75
2023/05/08 09:08:18;;;;;;;6.20;3.80;;;;;;;15.29;41.54;101602.05;129478;1266;114779;-73
2023/05/08 09:11:21;;;;;;;6.20;4.10;;;;;;;15.13;41.98;101607.25;129480;1281;114741;-73
2023/05/08 09:14:25;;;;;;;7.50;3.70;;;;;;;15.00;41.97;101606.83;129349;1284;114757;-71
2023/05/08 09:17:30;;;;;;;9.60;4.50;;;;;;;14.75;42.22;101597.92;129356;1273;115180;-75
2023/05/08 09:20:32;;;;;;;7.30;4.80;;;;;;;14.46;42.84;101605.66;129243;1284;114804;-72
2023/05/08 09:23:35;;;;;;;10.20;5.60;;;;;;;14.30;43.41;101598.63;129272;1275;115182;-71
2023/05/08 09:26:40;;;;;;;7.20;5.10;;;;;;;14.14;43.27;101601.66;129484;1284;114795;-73
2023/05/08 09:29:57;;;;;;;13.40;6.50;;;;;;;14.01;44.19;101606.16;129326;1261;115178;-74
2023/05/08 09:33:01;;;;;;;6.70;5.50;;;;;;;13.93;44.24;101608.48;129214;1284;128007;-74
2023/05/08 09:36:04;;;;;;;;;;;;;;;13.80;44.75;101605.25;129423;1284;114814;-73
2023/05/08 09:39:11;;;;;;;8.70;5.50;;;;;;;13.77;45.13;101606.63;129383;1266;114760;-72
2023/05/08 09:42:13;;;;;;;5.20;4.70;;;;;;;13.63;45.19;101608.66;129451;1284;114847;-72
2023/05/08 09:45:30;;;;;;;7.80;5.60;;;;;;;13.57;45.19;101606.04;129300;1284;114735;-72
2023/05/08 09:48:37;;;;;;;6.20;4.90;;;;;;;13.42;45.65;101610.60;129285;1284;128948;-72
2023/05/08 09:51:53;;;;;;;8.00;6.30;;;;;;;13.35;45.87;101610.31;128989;1267;116560;-73
2023/05/08 09:55:06;;;;;;;8.30;5.80;;;;;;;13.18;46.03;101602.52;129250;1267;114980;-72
2023/05/08 09:58:09;;;;;;;6.00;4.90;;;;;;;13.13;46.23;101602.20;129149;1269;114891;-73
2023/05/08 10:01:29;;;;;;;6.50;5.50;;;;;;;13.01;46.53;101602.67;129325;1284;115173;-73
2023/05/08 10:04:37;;;;;;;8.30;6.40;;;;;;;12.93;46.43;101604.40;129148;1284;127866;-71
2023/05/08 10:07:40;;;;;;;8.40;5.60;;;;;;;12.86;46.93;101602.71;129426;1271;115187;-73
2023/05/08 10:10:42;;;;;;;7.10;6.00;;;;;;;12.75;46.79;101602.56;129313;1266;114699;-73
2023/05/08 10:13:45;;;;;;;10.30;6.30;;;;;;;12.66;47.02;101603.45;129331;1284;114791;-72
2023/05/08 10:16:50;;;;;;;8.90;5.80;;;;;;;12.56;47.32;101589.31;129318;1284;114750;-73
2023/05/08 10:19:58;;;;;;;7.70;5.60;;;;;;;12.56;47.69;101594.69;129260;1267;130234;-74
2023/05/08 10:23:02;;;;;;;5.70;5.10;;;;;;;12.58;47.90;101595.49;129157;1279;116661;-70
2023/05/08 10:26:23;;;;;;;8.40;6.40;;;;;;;12.56;47.92;101589.46;129594;1272;115174;-72
2023/05/08 10:29:41;;;;;;;9.90;6.50;;;;;;;12.46;47.86;101591.83;129573;1280;114772;-68
2023/05/08 10:32:44;;;;;;;9.10;6.80;;;;;;;12.41;48.21;101585.90;129486;1279;115352;-72
2023/05/08 10:35:47;;;;;;;9.60;7.20;;;;;;;12.37;48.04;101584.79;129540;1281;114761;-72
2023/05/08 10:38:49;;;;;;;6.80;5.30;;;;;;;12.33;48.44;101572.56;129450;1281;114817;-73
2023/05/08 10:41:52;;;;;;;8.20;6.20;;;;;;;12.38;48.76;101572.42;129526;1260;114911;-72
2023/05/08 10:44:54;;;;;;;7.90;5.90;;;;;;;12.46;48.50;101563.34;129551;1259;114686;-72
2023/05/08 10:48:17;;;;;;;8.40;6.60;;;;;;;12.54;48.42;101560.54;129522;1263;114693;-72
2023/05/08 10:51:19;;;;;;;10.90;6.10;;;;;;;12.51;48.49;101555.44;129156;1281;114804;-72
2023/05/08 10:54:52;;;;;;;8.40;5.80;;;;;;;12.55;48.72;101552.58;129506;1281;114741;-69
2023/05/08 10:58:31;;;;;;;8.30;5.80;;;;;;;12.63;48.44;101557.31;129311;1265;115275;-71
2023/05/08 11:01:37;;;;;;;7.80;6.10;;;;;;;12.66;48.55;101557.41;129011;1264;115439;-70
2023/05/08 11:04:40;;;;;;;9.20;5.20;;;;;;;12.73;48.40;101548.52;128806;1287;114897;-69
2023/05/08 11:07:56;;;;;;;7.40;5.70;;;;;;;12.75;48.26;101545.40;129158;1287;114746;-71
2023/05/08 11:10:58;;;;;;;7.30;5.10;;;;;;;12.75;48.01;101552.00;129113;1286;127856;-71
2023/05/08 11:14:06;;;;;;;7.90;5.60;;;;;;;12.82;48.11;101555.01;129245;1267;114917;-72
2023/05/08 11:17:09;;;;;;;11.20;6.10;;;;;;;12.87;47.97;101553.01;129100;1270;114951;-72
2023/05/08 11:20:11;;;;;;;8.10;6.30;;;;;;;12.89;48.16;101549.50;129112;1264;114910;-63
2023/05/08 11:23:24;;;;;;;8.00;6.00;;;;;;;12.93;48.44;101540.95;129073;1286;114873;-64
2023/05/08 11:26:39;;;;;;;7.70;5.60;;;;;;;13.01;48.35;101545.28;129105;1269;128096;-61
2023/05/08 11:29:41;;;;;;;10.50;5.50;;;;;;;13.05;47.76;101544.77;129099;1286;114937;-63
2023/05/08 11:33:08;;;;;;;8.10;5.20;;;;;;;13.05;47.49;101542.05;129078;1280;115147;-62
2023/05/08 11:36:19;;;;;;;9.90;5.90;;;;;;;13.01;47.08;101542.94;129073;1267;114840;-62
2023/05/08 11:39:21;;;;;;;8.30;5.00;;;;;;;12.98;47.50;101536.45;129287;1274;114744;-64
2023/05/08 11:42:24;;;;;;;7.50;4.90;;;;;;;13.00;47.50;101540.82;129452;1264;114776;-62
2023/05/08 11:45:26;;;;;;;7.70;6.20;;;;;;;13.02;47.34;101537.67;129522;1281;114658;-62
2023/05/08 11:48:30;;;;;;;7.00;5.40;;;;;;;13.01;47.29;101533.63;129509;1264;114962;-62
2023/05/08 11:51:32;;;;;;;8.10;5.50;;;;;;;13.06;47.44;101539.68;129508;1262;115341;-63
2023/05/08 11:54:35;;;;;;;8.10;6.20;;;;;;;13.04;47.07;101541.00;129467;1262;114754;-63
2023/05/08 11:57:38;;;;;;;5.90;5.30;;;;;;;13.03;47.30;101534.98;129447;1281;114755;-66
2023/05/08 12:00:43;;;;;;;6.90;5.90;;;;;;;12.99;47.15;101530.48;129502;1281;114806;-62
2023/05/08 12:03:45;;;;;;;6.60;5.00;;;;;;;12.97;47.02;101530.00;129339;1265;116488;-63
2023/05/08 12:06:50;;;;;;;9.50;5.40;;;;;;;13.00;47.39;101525.77;129356;1258;115404;-63
2023/05/08 12:09:52;;;;;;;6.40;4.80;;;;;;;13.05;47.32;101522.86;129416;1265;115008;-62
2023/05/08 12:12:55;;;;;;;7.10;5.50;;;;;;;13.11;46.99;101522.64;129422;1280;114738;-62
2023/05/08 12:15:58;;;;;;;7.00;4.40;;;;;;;13.09;46.73;101517.88;129473;1279;114738;-62
2023/05/08 12:19:01;;;;;;;7.20;4.00;;;;;;;13.11;46.75;101520.84;129529;1281;115152;-62
2023/05/08 12:22:03;;;;;;;9.90;5.00;;;;;;;13.15;46.84;101519.42;129537;1280;114736;-62
2023/05/08 12:25:09;;;;;;;4.60;4.10;;;;;;;13.17;46.56;101523.28;129708;1261;114845;-62
2023/05/08 12:28:14;;;;;;;5.50;4.10;;;;;;;13.19;46.53;101518.52;129596;1267;114766;-61
2023/05/08 12:31:17;;;;;;;4.90;3.70;;;;;;;13.20;46.41;101511.13;129555;1280;114760;-62
2023/05/08 12:34:19;;;;;;;6.30;4.80;;;;;;;13.25;46.72;101517.39;129372;1280;114805;-64
2023/05/08 12:37:23;;;;;;;4.30;3.80;;;;;;;13.30;46.39;101517.94;129516;1280;114754;-63
2023/05/08 12:40:30;;;;;;;5.70;4.10;;;;;;;13.33;45.89;101519.21;129586;1273;115150;-66
2023/05/08 12:43:34;;;;;;;6.50;4.30;;;;;;;13.32;45.71;101514.96;129409;1266;114844;-63
2023/05/08 12:46:45;;;;;;;5.60;4.10;;;;;;;13.30;45.93;101515.40;129527;1273;114744;-63
2023/05/08 12:49:49;;;;;;;5.10;3.60;;;;;;;13.30;45.84;101503.59;129309;1260;127754;-63
2023/05/08 12:52:51;;;;;;;6.40;4.30;;;;;;;13.35;45.68;101511.08;129455;1264;116478;-63
2023/05/08 12:55:56;;;;;;;4.10;3.50;;;;;;;13.38;45.66;101503.98;129445;1271;114789;-63
2023/05/08 12:58:58;;;;;;;7.10;4.70;;;;;;;13.42;45.57;101498.80;129382;1263;114743;-64
2023/05/08 13:02:00;;;;;;;5.10;4.00;;;;;;;13.49;45.58;101500.11;129396;1273;114732;-62
2023/05/08 13:05:04;;;;;;;7.20;4.20;;;;;;;13.50;45.56;101496.84;129445;1281;114726;-63
2023/05/08 13:08:10;;;;;;;7.70;4.10;;;;;;;13.52;45.66;101493.34;129478;1281;114722;-62
2023/05/08 13:11:13;;;;;;;7.50;4.00;;;;;;;13.55;45.57;101488.02;129246;1261;408055;-61
2023/05/08 13:14:15;;;;;;;5.60;4.10;;;;;;;13.58;45.16;101485.02;129468;1272;114696;-61
2023/05/08 13:17:18;;;;;;;10.50;4.50;;;;;;;13.60;45.55;101471.11;129442;1273;115316;-61
2023/05/08 13:20:20;;;;;;;9.00;3.70;;;;;;;13.66;45.05;101477.48;129616;1274;114728;-62
2023/05/08 13:23:23;;;;;;;6.10;3.40;;;;;;;13.68;45.10;101480.46;129550;1261;128783;-62
2023/05/08 13:26:26;;;;;;;5.20;3.20;;;;;;;13.70;45.01;101479.13;129961;1259;114728;-63
2023/05/08 13:29:28;;;;;;;6.20;3.70;;;;;;;13.73;44.77;101477.02;130233;1260;114822;-62
2023/05/08 13:32:31;;;;;;;6.10;3.80;;;;;;;13.75;44.48;101472.44;130201;1260;114853;-62
2023/05/08 13:35:34;;;;;;;6.30;4.00;;;;;;;13.73;44.40;101468.40;130040;1264;114774;-63
2023/05/08 13:38:37;;;;;;;4.40;3.10;;;;;;;13.71;44.29;101466.14;130135;1270;114724;-62
2023/05/08 13:41:39;;;;;;;6.20;4.50;;;;;;;13.72;44.27;101460.19;129867;1280;115343;-63
2023/05/08 13:44:42;;;;;;;4.90;3.90;;;;;;;13.70;44.50;101450.05;130020;1280;115294;-64
2023/05/08 13:47:46;;;;;;;4.10;2.90;;;;;;;13.71;44.82;101454.86;129768;1256;114814;-64
2023/05/08 13:50:48;;;;;;;6.70;3.80;;;;;;;13.75;44.87;101451.26;129993;1257;114801;-61
2023/05/08 13:53:51;;;;;;;7.30;3.30;;;;;;;13.82;44.57;101452.52;129591;1281;115315;-63
2023/05/08 13:56:53;;;;;;;5.90;4.00;;;;;;;13.87;43.97;101451.65;129590;1281;114761;-63
2023/05/08 13:59:56;;;;;;;4.70;3.40;;;;;;;13.90;44.32;101444.84;129598;1281;114774;-63
2023/05/08 14:02:58;;;;;;;4.20;2.90;;;;;;;13.95;44.00;101442.08;129281;1281;115273;-63
2023/05/08 14:06:00;;;;;;;4.00;3.30;;;;;;;14.00;43.83;101441.88;129612;1259;114852;-62
2023/05/08 14:09:04;;;;;;;5.30;3.60;;;;;;;14.02;43.36;101442.48;129651;1259;114834;-71
2023/05/08 14:12:07;;;;;;;4.20;3.20;;;;;;;14.06;43.90;101441.77;129853;1278;114781;-70
2023/05/08 14:15:10;;;;;;;5.70;3.40;;;;;;;14.11;43.86;101441.20;129748;1280;114713;-71
2023/05/08 14:18:12;;;;;;;4.60;3.20;;;;;;;14.14;43.58;101437.11;129544;1280;128795;-69
2023/05/08 14:21:15;;;;;;;9.10;4.00;;;;;;;14.15;43.12;101443.52;129681;1260;114814;-68
2023/05/08 14:24:17;;;;;;;5.90;3.20;;;;;;;14.17;43.33;101434.44;129723;1261;114766;-70
2023/05/08 14:27:19;;;;;;;5.30;3.80;;;;;;;14.21;43.82;101435.17;129600;1261;114691;-69
2023/05/08 14:30:22;;;;;;;6.90;3.90;;;;;;;14.23;43.18;101435.59;129443;1280;115436;-69